Time;durP1;ratioP1;P1;durP2;ratioP2;P2;SDS_P1;SDS_P2;PMS_P1;PMS_P2;Temp;Humidity;BMP_temperature;BMP_pressure;BME280_temperature;BME280_humidity;BME280_pressure;Samples;Min_cycle;Max_cycle;Signal;HPM_P1;HPM_P2
2021/04/10 00:01:17;;;;;;;16.00;10.48;;;10.90;57.50;;;;;;5125294;28;20427;-79
2021/04/10 00:03:43;;;;;;;13.48;8.65;;;11.00;57.50;;;;;;5128917;28;20658;-79
2021/04/10 00:06:09;;;;;;;16.23;9.45;;;10.80;57.60;;;;;;5126144;28;20170;-79
2021/04/10 00:08:35;;;;;;;21.92;9.60;;;10.80;57.80;;;;;;5126224;27;20217;-78
2021/04/10 00:11:01;;;;;;;17.50;9.60;;;10.50;58.40;;;;;;5121829;28;20171;-79
2021/04/10 00:13:27;;;;;;;15.63;9.80;;;10.30;59.00;;;;;;5095278;28;20240;-79
2021/04/10 00:15:52;;;;;;;14.33;8.93;;;10.30;59.50;;;;;;5095147;28;20538;-79
2021/04/10 00:18:18;;;;;;;14.47;10.33;;;10.30;59.70;;;;;;5094681;28;20461;-78
2021/04/10 00:20:44;;;;;;;16.03;9.00;;;10.50;59.70;;;;;;5095614;28;20410;-79
2021/04/10 00:23:10;;;;;;;14.53;10.57;;;10.70;59.50;;;;;;5096220;28;20207;-79
2021/04/10 00:25:35;;;;;;;14.57;8.63;;;10.50;59.10;;;;;;5094628;28;20176;-79
2021/04/10 00:28:01;;;;;;;13.33;8.63;;;10.20;59.80;;;;;;5095972;28;20443;-79
2021/04/10 00:30:27;;;;;;;11.50;7.47;;;9.90;61.00;;;;;;5095240;28;20176;-79
2021/04/10 00:32:53;;;;;;;13.00;8.33;;;9.80;61.90;;;;;;5096079;28;20430;-79
2021/04/10 00:35:19;;;;;;;17.20;9.50;;;10.00;62.20;;;;;;5094833;28;20206;-79
2021/04/10 00:37:44;;;;;;;14.25;8.55;;;10.10;62.50;;;;;;5098156;28;20207;-78
2021/04/10 00:40:11;;;;;;;18.00;9.93;;;9.90;63.40;;;;;;5095170;28;20376;-78
2021/04/10 00:42:38;;;;;;;17.40;9.35;;;9.50;65.30;;;;;;5094985;28;20722;-78
2021/04/10 00:45:05;;;;;;;15.95;9.65;;;9.50;66.40;;;;;;5094247;28;20180;-78
2021/04/10 00:47:31;;;;;;;24.23;10.68;;;9.50;67.20;;;;;;5095334;28;20523;-78
2021/04/10 00:49:57;;;;;;;15.70;10.18;;;9.70;67.30;;;;;;5094914;28;20201;-78
2021/04/10 00:52:23;;;;;;;18.10;9.87;;;9.70;67.80;;;;;;5095019;28;20196;-79
2021/04/10 00:54:50;;;;;;;20.70;10.55;;;9.80;68.00;;;;;;5095652;28;20172;-78
2021/04/10 00:57:17;;;;;;;15.25;10.07;;;9.60;68.70;;;;;;5099540;28;20274;-78
2021/04/10 00:59:43;;;;;;;20.63;11.10;;;9.60;69.30;;;;;;5111228;28;20709;-78
2021/04/10 01:02:10;;;;;;;20.52;10.48;;;9.60;69.70;;;;;;5115398;28;20191;-79
2021/04/10 01:04:36;;;;;;;19.55;11.40;;;9.50;70.50;;;;;;5115364;28;20254;-78
2021/04/10 01:07:02;;;;;;;20.23;10.33;;;9.50;70.90;;;;;;5116760;27;20759;-78
2021/04/10 01:09:29;;;;;;;28.02;11.98;;;9.60;71.10;;;;;;5116621;28;20436;-78
2021/04/10 01:12:15;;;;;;;24.58;13.55;;;9.70;71.00;;;;;;5106149;28;20290;-78
2021/04/10 01:14:45;;;;;;;21.10;11.35;;;9.70;71.10;;;;;;5096376;28;20175;-78
2021/04/10 01:17:16;;;;;;;24.33;12.80;;;9.60;71.20;;;;;;5094988;28;20644;-78
2021/04/10 01:19:50;;;;;;;27.45;13.30;;;9.50;72.00;;;;;;5095724;28;20187;-78
2021/04/10 01:22:41;;;;;;;30.92;13.23;;;9.60;72.40;;;;;;5093261;28;20248;-78
2021/04/10 01:25:11;;;;;;;24.27;13.25;;;9.40;72.60;;;;;;5094947;28;20172;-78
2021/04/10 01:27:43;;;;;;;27.23;14.45;;;9.40;73.10;;;;;;5094208;28;20194;-78
2021/04/10 01:30:20;;;;;;;24.98;13.00;;;9.40;73.30;;;;;;5095057;28;20160;-78
2021/04/10 01:32:56;;;;;;;33.13;13.65;;;9.40;73.40;;;;;;5099328;28;20217;-78
2021/04/10 01:35:24;;;;;;;27.38;13.48;;;9.00;74.30;;;;;;5098815;28;20225;-79
2021/04/10 01:37:57;;;;;;;32.03;15.25;;;9.10;74.70;;;;;;5093295;28;20208;-78
2021/04/10 01:40:26;;;;;;;28.75;14.10;;;9.00;74.90;;;;;;5093434;28;20172;-78
2021/04/10 01:42:54;;;;;;;26.80;13.85;;;9.00;75.00;;;;;;5094293;28;20192;-79
2021/04/10 01:45:21;;;;;;;27.10;13.75;;;9.00;74.70;;;;;;5094515;28;20639;-78
2021/04/10 01:47:49;;;;;;;25.38;14.75;;;9.10;74.60;;;;;;5094419;28;20172;-78
2021/04/10 01:50:15;;;;;;;21.40;13.52;;;9.10;74.40;;;;;;5092861;28;20262;-78
2021/04/10 01:52:44;;;;;;;27.58;13.73;;;9.10;74.20;;;;;;5093743;28;20196;-79
2021/04/10 01:55:12;;;;;;;24.55;13.68;;;9.20;74.00;;;;;;5092732;28;20184;-79
2021/04/10 01:57:38;;;;;;;25.77;15.02;;;9.30;73.90;;;;;;5092665;28;20207;-79
2021/04/10 02:00:07;;;;;;;33.85;14.35;;;9.20;73.80;;;;;;5112285;28;20658;-79
2021/04/10 02:02:41;;;;;;;24.13;13.85;;;9.30;73.90;;;;;;5112475;28;20267;-79
2021/04/10 02:05:13;;;;;;;27.25;14.38;;;9.20;73.80;;;;;;5112819;28;20661;-79
2021/04/10 02:07:42;;;;;;;25.80;13.55;;;9.20;73.90;;;;;;5114388;28;20220;-78
2021/04/10 02:10:10;;;;;;;26.88;14.05;;;8.90;74.50;;;;;;5113030;28;20186;-79
2021/04/10 02:12:37;;;;;;;23.02;12.18;;;8.80;75.00;;;;;;5098474;28;20211;-79
2021/04/10 02:15:05;;;;;;;24.35;13.35;;;8.80;75.10;;;;;;5092259;28;20180;-78
2021/04/10 02:17:32;;;;;;;27.02;12.45;;;8.80;75.20;;;;;;5093579;28;20259;-78
2021/04/10 02:19:58;;;;;;;26.77;12.35;;;8.70;75.30;;;;;;5092986;28;20225;-78
2021/04/10 02:22:25;;;;;;;22.03;11.73;;;8.60;75.50;;;;;;5093891;28;20282;-79
2021/04/10 02:24:51;;;;;;;23.30;12.32;;;8.50;76.40;;;;;;5092406;28;20449;-79
2021/04/10 02:27:17;;;;;;;23.63;12.20;;;8.50;75.60;;;;;;5093589;28;20207;-79
2021/04/10 02:29:43;;;;;;;24.40;12.53;;;8.40;75.70;;;;;;5098861;28;20417;-78
2021/04/10 02:32:14;;;;;;;25.75;12.15;;;8.50;75.80;;;;;;5091608;28;20203;-78
2021/04/10 02:34:49;;;;;;;31.90;11.43;;;8.50;75.60;;;;;;5092171;28;20205;-78
2021/04/10 02:37:16;;;;;;;25.63;11.80;;;8.40;75.50;;;;;;5092258;28;20195;-78
2021/04/10 02:39:44;;;;;;;21.17;10.60;;;8.50;75.30;;;;;;5094572;28;20178;-77
2021/04/10 02:42:11;;;;;;;20.67;10.95;;;8.60;75.10;;;;;;5092977;28;20209;-77
2021/04/10 02:44:47;;;;;;;21.95;10.82;;;8.70;74.70;;;;;;5093469;28;20666;-77
2021/04/10 02:47:16;;;;;;;19.17;9.38;;;8.60;74.30;;;;;;5094084;28;20677;-77
2021/04/10 02:49:47;;;;;;;20.42;9.25;;;8.40;74.30;;;;;;5094052;28;20202;-77
2021/04/10 02:52:14;;;;;;;17.75;8.15;;;8.50;74.30;;;;;;5094418;28;20188;-77
2021/04/10 02:54:47;;;;;;;16.90;8.52;;;8.70;73.90;;;;;;5095245;28;20167;-77
2021/04/10 02:57:16;;;;;;;14.43;8.43;;;8.60;73.30;;;;;;5094887;28;20305;-77
2021/04/10 02:59:48;;;;;;;18.90;8.13;;;8.80;73.10;;;;;;5109784;28;20186;-77
2021/04/10 03:02:15;;;;;;;19.58;8.40;;;8.80;72.50;;;;;;5112916;28;20188;-77
2021/04/10 03:04:44;;;;;;;17.00;8.93;;;8.70;72.30;;;;;;5113356;28;20175;-77
2021/04/10 03:07:12;;;;;;;17.00;7.40;;;8.70;72.30;;;;;;5113617;28;20186;-77
2021/04/10 03:09:41;;;;;;;14.00;8.15;;;8.70;72.40;;;;;;5114184;28;20642;-77
2021/04/10 03:12:07;;;;;;;16.40;8.52;;;8.60;72.30;;;;;;5103741;28;20199;-77
2021/04/10 03:14:35;;;;;;;16.77;7.60;;;8.60;72.50;;;;;;5092171;28;20237;-78
2021/04/10 03:17:02;;;;;;;19.45;9.05;;;8.70;72.30;;;;;;5093814;28;20206;-77
2021/04/10 03:19:29;;;;;;;14.40;7.63;;;8.70;72.20;;;;;;5092062;28;20294;-77
2021/04/10 03:21:56;;;;;;;13.80;6.95;;;8.70;72.00;;;;;;5091967;28;20271;-77
2021/04/10 03:24:22;;;;;;;16.23;8.13;;;8.60;72.00;;;;;;5093378;28;20262;-77
2021/04/10 03:26:48;;;;;;;13.60;7.93;;;8.60;72.20;;;;;;5093113;28;20410;-77
2021/04/10 03:29:15;;;;;;;14.98;7.40;;;8.70;72.00;;;;;;5097029;28;20416;-77
2021/04/10 03:31:41;;;;;;;13.40;7.40;;;8.60;71.90;;;;;;5096325;28;20199;-77
2021/04/10 03:34:07;;;;;;;12.00;7.38;;;8.60;72.10;;;;;;5096760;28;20193;-77
2021/04/10 03:36:34;;;;;;;16.77;9.70;;;8.50;72.20;;;;;;5095373;28;20180;-77
2021/04/10 03:39:01;;;;;;;17.10;6.95;;;8.40;72.50;;;;;;5095366;28;20703;-77
2021/04/10 03:41:27;;;;;;;18.77;7.03;;;8.40;72.70;;;;;;5094817;28;20183;-77
2021/04/10 03:43:53;;;;;;;16.77;7.03;;;8.40;72.80;;;;;;5095403;28;20183;-77
2021/04/10 03:46:19;;;;;;;14.47;7.63;;;8.40;72.80;;;;;;5096660;28;20168;-77
2021/04/10 03:48:44;;;;;;;17.07;6.20;;;8.40;72.80;;;;;;5095006;28;20647;-78
2021/04/10 03:51:10;;;;;;;18.87;8.83;;;8.50;72.70;;;;;;5096207;28;20168;-78
2021/04/10 03:53:36;;;;;;;20.07;7.57;;;8.40;72.70;;;;;;5098442;28;20477;-78
2021/04/10 03:56:02;;;;;;;19.70;6.60;;;8.40;72.80;;;;;;5097684;28;20501;-78
2021/04/10 03:58:27;;;;;;;22.23;7.80;;;8.40;72.80;;;;;;5102595;28;20195;-78
2021/04/10 04:00:53;;;;;;;14.60;7.20;;;8.30;72.90;;;;;;5114803;28;20411;-77
2021/04/10 04:03:19;;;;;;;14.03;5.60;;;8.30;72.90;;;;;;5115273;28;20191;-78
2021/04/10 04:05:44;;;;;;;16.13;7.83;;;8.30;73.10;;;;;;5115364;28;20174;-78
2021/04/10 04:08:10;;;;;;;15.87;7.63;;;8.30;73.10;;;;;;5116421;28;20257;-78
2021/04/10 04:10:36;;;;;;;14.83;7.17;;;8.40;73.00;;;;;;5114739;28;20179;-78
2021/04/10 04:13:02;;;;;;;17.40;7.73;;;8.40;72.80;;;;;;5097602;28;20207;-78
2021/04/10 04:15:27;;;;;;;11.47;6.73;;;8.50;72.70;;;;;;5094816;28;20175;-78
2021/04/10 04:17:53;;;;;;;22.57;8.40;;;8.50;72.60;;;;;;5095865;28;20563;-78
2021/04/10 04:20:19;;;;;;;12.77;7.30;;;8.40;72.40;;;;;;5096772;28;20179;-78
2021/04/10 04:22:45;;;;;;;13.00;8.57;;;8.30;72.70;;;;;;5094029;28;20192;-78
2021/04/10 04:25:11;;;;;;;15.33;7.20;;;8.30;72.90;;;;;;5094642;28;20460;-78
2021/04/10 04:27:37;;;;;;;20.13;8.23;;;8.30;72.80;;;;;;5094452;28;20222;-78
2021/04/10 04:30:07;;;;;;;21.52;7.18;;;8.30;72.90;;;;;;5094533;28;20180;-78
2021/04/10 04:32:33;;;;;;;19.25;6.95;;;8.40;72.80;;;;;;5095017;28;20726;-78
2021/04/10 04:34:59;;;;;;;16.92;6.43;;;8.30;72.90;;;;;;5095683;28;20180;-78
2021/04/10 04:37:25;;;;;;;12.67;8.20;;;8.30;73.10;;;;;;5095583;28;20210;-78
2021/04/10 04:39:51;;;;;;;21.07;8.00;;;8.40;73.00;;;;;;5094349;28;20623;-78
2021/04/10 04:42:17;;;;;;;20.80;7.63;;;8.40;72.80;;;;;;5093610;28;20426;-78
2021/04/10 04:44:44;;;;;;;17.65;7.20;;;8.40;72.80;;;;;;5095700;28;20406;-78
2021/04/10 04:47:10;;;;;;;14.73;7.78;;;8.30;72.90;;;;;;5093990;28;20637;-78
2021/04/10 04:49:36;;;;;;;19.70;7.57;;;8.30;73.20;;;;;;5093993;28;20199;-78
2021/04/10 04:52:02;;;;;;;10.93;7.28;;;8.30;73.30;;;;;;5093742;28;20615;-78
2021/04/10 04:54:28;;;;;;;17.80;8.27;;;8.40;73.20;;;;;;5095249;28;20182;-78
2021/04/10 04:56:54;;;;;;;15.07;6.90;;;8.40;73.20;;;;;;5095389;28;20204;-78
2021/04/10 04:59:19;;;;;;;18.57;7.53;;;8.40;73.70;;;;;;5107637;28;20257;-78
2021/04/10 05:01:45;;;;;;;14.63;7.00;;;8.30;73.40;;;;;;5115049;28;20197;-78
2021/04/10 05:04:11;;;;;;;14.30;7.60;;;8.40;73.50;;;;;;5114553;28;20723;-78
2021/04/10 05:06:38;;;;;;;18.63;8.25;;;8.50;73.40;;;;;;5114212;28;20172;-78
2021/04/10 05:09:04;;;;;;;17.95;6.85;;;8.30;73.20;;;;;;5115588;28;20539;-78
2021/04/10 05:11:30;;;;;;;14.70;8.23;;;8.30;73.40;;;;;;5108915;28;20168;-77
2021/04/10 05:13:56;;;;;;;13.53;7.50;;;8.30;73.40;;;;;;5096576;28;20262;-77
2021/04/10 05:16:22;;;;;;;15.20;7.10;;;8.40;73.20;;;;;;5095816;28;20195;-78
2021/04/10 05:18:47;;;;;;;11.50;6.90;;;8.50;73.10;;;;;;5094877;28;20194;-77
2021/04/10 05:21:13;;;;;;;15.23;6.77;;;8.50;72.90;;;;;;5094275;28;20231;-78
2021/04/10 05:23:39;;;;;;;16.87;7.30;;;8.40;72.80;;;;;;5094872;28;20183;-78
2021/04/10 05:26:05;;;;;;;15.88;7.70;;;8.40;72.90;;;;;;5093396;28;20245;-78
2021/04/10 05:28:31;;;;;;;20.20;8.00;;;8.50;73.10;;;;;;5096506;28;20609;-78
2021/04/10 05:31:01;;;;;;;15.10;7.40;;;8.50;73.00;;;;;;5096696;28;20412;-78
2021/04/10 05:33:30;;;;;;;16.35;6.18;;;8.70;72.70;;;;;;5093181;28;20195;-78
2021/04/10 05:35:56;;;;;;;25.10;8.80;;;8.70;72.70;;;;;;5094454;28;20211;-78
2021/04/10 05:38:23;;;;;;;13.20;6.15;;;8.60;72.40;;;;;;5094545;28;20279;-78
2021/04/10 05:40:49;;;;;;;11.57;7.88;;;8.70;72.40;;;;;;5092369;28;20176;-78
2021/04/10 05:43:14;;;;;;;10.03;6.47;;;8.60;72.30;;;;;;5094474;28;20529;-78
2021/04/10 05:45:40;;;;;;;22.33;7.63;;;8.70;72.40;;;;;;5094265;28;20179;-78
2021/04/10 05:48:06;;;;;;;15.37;6.53;;;8.60;72.50;;;;;;5094346;28;20463;-78
2021/04/10 05:50:32;;;;;;;25.48;7.55;;;8.60;72.50;;;;;;5091901;28;20191;-78
2021/04/10 05:52:58;;;;;;;16.73;7.97;;;8.70;72.40;;;;;;5094141;28;20204;-78
2021/04/10 05:55:24;;;;;;;21.70;7.60;;;8.60;72.40;;;;;;5094125;28;20247;-78
2021/04/10 05:57:49;;;;;;;17.97;8.00;;;8.50;72.70;;;;;;5093527;28;20218;-78
2021/04/10 06:00:16;;;;;;;14.90;6.63;;;8.60;72.70;;;;;;5114153;28;20175;-78
2021/04/10 06:02:42;;;;;;;12.25;6.80;;;8.60;72.60;;;;;;5112481;28;20544;-78
2021/04/10 06:05:08;;;;;;;17.23;7.63;;;8.40;72.80;;;;;;5112807;28;20270;-78
2021/04/10 06:07:34;;;;;;;19.02;7.55;;;8.40;72.90;;;;;;5113124;28;20179;-78
2021/04/10 06:10:00;;;;;;;13.23;6.87;;;8.50;73.20;;;;;;5115879;28;20202;-78
2021/04/10 06:12:25;;;;;;;19.60;6.67;;;8.50;73.10;;;;;;5099614;28;20207;-78
2021/04/10 06:14:51;;;;;;;20.13;7.37;;;8.50;73.20;;;;;;5093815;28;20257;-78
2021/04/10 06:17:17;;;;;;;15.60;6.90;;;8.60;73.10;;;;;;5092567;28;20208;-78
2021/04/10 06:19:43;;;;;;;18.65;8.02;;;8.60;72.70;;;;;;5094083;28;20179;-78
2021/04/10 06:22:09;;;;;;;18.38;6.80;;;8.50;72.80;;;;;;5091824;28;20199;-78
2021/04/10 06:24:35;;;;;;;20.57;7.47;;;8.50;72.90;;;;;;5093714;28;20643;-78
2021/04/10 06:27:01;;;;;;;25.27;6.37;;;8.60;72.90;;;;;;5092234;28;20763;-78
2021/04/10 06:29:27;;;;;;;17.50;7.90;;;8.60;72.70;;;;;;5093382;28;20214;-78
2021/04/10 06:31:52;;;;;;;18.00;6.93;;;8.80;72.70;;;;;;5091512;28;20464;-78
2021/04/10 06:34:18;;;;;;;18.80;7.43;;;8.70;72.40;;;;;;5092241;28;20737;-78
2021/04/10 06:36:44;;;;;;;15.70;6.87;;;8.70;72.30;;;;;;5093570;28;20241;-78
2021/04/10 06:39:09;;;;;;;12.43;6.07;;;8.70;72.00;;;;;;5093416;28;20251;-78
2021/04/10 06:41:35;;;;;;;15.30;6.53;;;8.60;72.20;;;;;;5091383;28;20195;-78
2021/04/10 06:44:04;;;;;;;13.87;6.40;;;8.50;72.70;;;;;;5093389;28;20175;-78
2021/04/10 06:46:34;;;;;;;12.38;5.97;;;8.70;72.50;;;;;;5093231;28;20482;-78
2021/04/10 06:49:01;;;;;;;16.55;7.07;;;8.70;72.30;;;;;;5091832;28;20543;-78
2021/04/10 06:51:27;;;;;;;25.88;7.05;;;8.70;72.40;;;;;;5092634;28;20176;-78
2021/04/10 06:53:54;;;;;;;19.90;7.50;;;8.70;72.50;;;;;;5093278;28;20205;-78
2021/04/10 06:56:32;;;;;;;14.05;8.88;;;8.60;72.40;;;;;;5093504;28;20634;-78
2021/04/10 06:59:26;;;;;;;19.38;7.40;;;8.60;72.60;;;;;;5103880;28;20265;-78
2021/04/10 07:01:52;;;;;;;11.10;6.05;;;8.70;72.50;;;;;;5113799;28;20206;-78
2021/04/10 07:04:19;;;;;;;17.52;6.43;;;8.60;72.40;;;;;;5116946;28;20171;-78
2021/04/10 07:06:44;;;;;;;17.58;7.03;;;8.50;72.90;;;;;;5113171;28;20551;-78
2021/04/10 07:09:12;;;;;;;24.37;8.63;;;8.70;73.00;;;;;;5113331;28;20179;-78
2021/04/10 07:11:38;;;;;;;21.77;9.25;;;8.80;72.40;;;;;;5106756;28;20623;-78
2021/04/10 07:14:04;;;;;;;16.73;8.77;;;8.80;72.20;;;;;;5092873;28;20172;-78
2021/04/10 07:16:40;;;;;;;21.10;7.70;;;8.80;72.20;;;;;;5092929;28;20194;-78
2021/04/10 07:19:12;;;;;;;17.88;8.70;;;8.80;72.00;;;;;;5091554;28;20570;-78
2021/04/10 07:21:39;;;;;;;13.50;6.57;;;8.90;71.80;;;;;;5092056;28;20194;-78
2021/04/10 07:24:06;;;;;;;16.58;7.85;;;9.10;71.70;;;;;;5092964;28;20171;-78
2021/04/10 07:26:57;;;;;;;18.52;7.47;;;9.00;71.30;;;;;;5092899;28;20172;-78
2021/04/10 07:29:40;;;;;;;16.90;7.80;;;9.00;71.60;;;;;;5091673;28;20176;-78
2021/04/10 07:32:25;;;;;;;15.52;8.23;;;8.90;71.80;;;;;;5092414;28;20678;-77
2021/04/10 07:34:53;;;;;;;14.90;7.55;;;8.80;72.10;;;;;;5093031;28;20180;-77
2021/04/10 07:37:38;;;;;;;18.00;7.97;;;8.90;72.30;;;;;;5091579;28;20199;-78
2021/04/10 07:40:12;;;;;;;16.10;9.38;;;8.90;72.40;;;;;;5091208;28;20171;-78
2021/04/10 07:42:41;;;;;;;20.02;8.77;;;8.90;72.50;;;;;;5092204;28;20240;-78
2021/04/10 07:45:29;;;;;;;14.48;7.10;;;8.70;72.70;;;;;;5091329;28;20171;-78
2021/04/10 07:48:10;;;;;;;26.15;8.70;;;8.90;73.20;;;;;;5091526;28;20209;-78
2021/04/10 07:50:38;;;;;;;14.45;8.27;;;8.70;73.10;;;;;;5092052;28;20278;-79
2021/04/10 07:53:19;;;;;;;12.30;6.78;;;8.90;73.20;;;;;;5092745;28;20202;-78
2021/04/10 07:55:44;;;;;;;13.10;8.70;;;9.00;73.50;;;;;;5091298;28;20183;-78
2021/04/10 07:58:27;;;;;;;24.33;8.70;;;9.00;73.60;;;;;;5096085;28;20557;-78
2021/04/10 08:00:57;;;;;;;26.65;9.07;;;8.90;74.40;;;;;;5114705;28;20405;-78
2021/04/10 08:03:37;;;;;;;24.92;8.80;;;8.70;75.60;;;;;;5113754;28;20183;-78
2021/04/10 08:06:06;;;;;;;15.60;8.68;;;8.60;77.00;;;;;;5111516;28;20540;-78
2021/04/10 08:08:57;;;;;;;20.65;8.55;;;8.60;78.20;;;;;;5113036;28;20168;-78
2021/04/10 08:11:34;;;;;;;20.67;9.07;;;8.70;79.00;;;;;;5108498;28;20290;-78
2021/04/10 08:14:07;;;;;;;15.05;9.57;;;8.80;79.20;;;;;;5093358;28;20260;-78
2021/04/10 08:16:39;;;;;;;14.32;8.52;;;8.80;79.20;;;;;;5096244;28;20187;-77
2021/04/10 08:19:04;;;;;;;19.60;10.65;;;8.80;79.10;;;;;;5095030;28;20643;-77
2021/04/10 08:21:30;;;;;;;18.87;8.60;;;8.90;78.90;;;;;;5094933;28;20187;-77
2021/04/10 08:23:56;;;;;;;19.87;10.43;;;8.90;79.10;;;;;;5094785;28;20501;-77
2021/04/10 08:26:23;;;;;;;24.90;10.60;;;8.80;78.70;;;;;;5096989;28;20195;-77
2021/04/10 08:28:49;;;;;;;19.65;9.70;;;8.70;79.80;;;;;;5097306;28;20172;-77
2021/04/10 08:31:17;;;;;;;22.75;11.65;;;8.70;80.70;;;;;;5097104;28;20237;-78
2021/04/10 08:33:44;;;;;;;19.17;9.75;;;8.70;81.20;;;;;;5103179;28;20188;-78
2021/04/10 08:36:11;;;;;;;27.48;13.13;;;8.70;81.20;;;;;;5106482;28;20176;-78
2021/04/10 08:38:42;;;;;;;27.00;10.40;;;8.70;81.40;;;;;;5102396;28;20216;-78
2021/04/10 08:41:10;;;;;;;24.40;11.27;;;8.70;81.70;;;;;;5109362;28;20168;-78
2021/04/10 08:43:55;;;;;;;20.40;10.70;;;8.70;81.50;;;;;;5105124;28;20505;-78
2021/04/10 08:46:23;;;;;;;21.77;11.13;;;8.70;81.80;;;;;;5104427;28;20174;-78
2021/04/10 08:48:57;;;;;;;29.88;12.35;;;8.80;81.80;;;;;;5106622;28;20211;-78
2021/04/10 08:51:25;;;;;;;24.63;13.27;;;8.70;81.40;;;;;;5098135;28;20183;-78
2021/04/10 08:53:53;;;;;;;25.98;12.15;;;8.60;81.50;;;;;;5099959;28;20233;-78
2021/04/10 08:56:23;;;;;;;23.60;11.00;;;8.70;81.90;;;;;;5101179;28;20171;-78
2021/04/10 08:58:49;;;;;;;21.95;12.57;;;8.60;81.70;;;;;;5105987;28;20210;-78
2021/04/10 09:01:29;;;;;;;20.60;11.02;;;8.70;82.10;;;;;;5117485;28;20167;-78
2021/04/10 09:03:55;;;;;;;29.00;12.50;;;8.50;82.40;;;;;;5116520;28;20267;-78
2021/04/10 09:06:33;;;;;;;24.88;12.20;;;8.60;83.20;;;;;;5117778;28;20591;-78
2021/04/10 09:09:19;;;;;;;27.58;14.05;;;8.60;83.30;;;;;;5115548;28;20258;-78
2021/04/10 09:11:46;;;;;;;30.30;13.52;;;8.50;83.60;;;;;;5078837;28;20694;-79
2021/04/10 09:14:13;;;;;;;29.73;12.35;;;8.40;83.80;;;;;;5097911;28;20242;-78
2021/04/10 09:16:49;;;;;;;32.47;15.95;;;8.50;84.40;;;;;;5096306;28;20164;-78
2021/04/10 09:19:17;;;;;;;23.70;12.82;;;8.60;84.70;;;;;;5096131;28;20654;-78
2021/04/10 09:21:43;;;;;;;30.63;14.07;;;8.40;85.00;;;;;;5094200;28;20192;-79
2021/04/10 09:24:20;;;;;;;23.53;14.30;;;8.40;85.00;;;;;;5093306;28;20259;-79
2021/04/10 09:27:05;;;;;;;27.50;12.75;;;8.40;85.50;;;;;;5094016;28;20183;-79
2021/04/10 09:29:43;;;;;;;28.42;13.95;;;8.50;86.00;;;;;;5096011;28;20172;-78
2021/04/10 09:32:10;;;;;;;37.28;15.63;;;8.50;85.50;;;;;;5100392;28;20188;-79
2021/04/10 09:35:01;;;;;;;34.20;15.65;;;8.40;85.40;;;;;;5096346;28;20675;-79
2021/04/10 09:37:26;;;;;;;25.25;14.82;;;8.50;85.90;;;;;;5094172;28;20207;-78
2021/04/10 09:40:23;;;;;;;33.40;16.80;;;8.30;85.40;;;;;;5093652;28;20175;-78
2021/04/10 09:42:53;;;;;;;33.40;15.00;;;8.30;85.80;;;;;;5092579;28;20238;-79
2021/04/10 09:45:29;;;;;;;36.33;15.05;;;8.40;86.10;;;;;;5093969;28;20176;-79
2021/04/10 09:50:41;;;;;;;32.97;16.63;;;8.70;86.20;;;;;;5096728;28;20196;-78
2021/04/10 09:53:08;;;;;;;39.55;18.23;;;8.50;85.70;;;;;;5096078;28;20210;-79
2021/04/10 09:55:36;;;;;;;28.30;14.80;;;8.70;85.80;;;;;;5093242;28;20211;-79
2021/04/10 09:58:05;;;;;;;33.60;18.48;;;8.80;85.20;;;;;;5096124;28;20669;-79
2021/04/10 10:00:38;;;;;;;28.85;16.00;;;8.70;84.80;;;;;;5112972;28;20178;-79
2021/04/10 10:03:06;;;;;;;35.38;17.45;;;8.70;85.30;;;;;;5113522;28;20685;-79
2021/04/10 10:05:40;;;;;;;30.73;18.70;;;8.80;85.50;;;;;;5113445;28;20304;-79
2021/04/10 10:08:08;;;;;;;35.20;17.55;;;8.80;85.80;;;;;;5113330;28;20492;-79
2021/04/10 10:10:40;;;;;;;37.42;18.73;;;8.80;85.70;;;;;;5112825;28;20171;-79
2021/04/10 10:13:17;;;;;;;36.38;16.73;;;8.80;85.40;;;;;;5114518;28;20769;-79
2021/04/10 10:15:48;;;;;;;31.38;17.65;;;8.90;85.40;;;;;;5113476;28;20252;-79
2021/04/10 10:18:25;;;;;;;32.95;17.83;;;9.10;85.60;;;;;;5113195;28;20229;-79
2021/04/10 10:20:58;;;;;;;35.42;18.65;;;9.10;85.20;;;;;;5113159;28;20179;-79
2021/04/10 10:23:29;;;;;;;41.17;20.30;;;9.20;85.00;;;;;;5114333;28;20670;-79
2021/04/10 10:26:02;;;;;;;42.70;19.10;;;9.30;85.00;;;;;;5113013;28;20714;-79
2021/04/10 10:28:28;;;;;;;28.35;16.15;;;9.00;84.40;;;;;;5114426;27;20274;-79
2021/04/10 10:30:54;;;;;;;40.88;17.20;;;8.90;84.90;;;;;;5113734;28;20661;-79
2021/04/10 10:33:21;;;;;;;34.00;16.70;;;8.80;85.10;;;;;;5112650;28;20321;-79
2021/04/10 10:35:53;;;;;;;31.35;16.92;;;8.80;85.80;;;;;;5112905;28;20421;-79
2021/04/10 10:38:19;;;;;;;36.60;18.85;;;8.80;86.10;;;;;;5112455;28;20211;-79
2021/04/10 10:40:48;;;;;;;30.80;18.10;;;9.00;86.60;;;;;;5113518;28;20622;-79
2021/04/10 10:43:15;;;;;;;28.17;16.25;;;9.20;86.50;;;;;;5112529;28;20673;-79
2021/04/10 10:45:49;;;;;;;26.83;17.40;;;9.30;86.40;;;;;;5114239;28;20190;-79
2021/04/10 10:48:28;;;;;;;38.03;17.10;;;9.30;85.50;;;;;;5110432;28;20223;-80
2021/04/10 10:51:01;;;;;;;34.95;18.00;;;9.10;85.30;;;;;;5085742;28;20266;-80
2021/04/10 10:53:31;;;;;;;25.92;14.95;;;9.00;85.30;;;;;;5087470;28;20680;-81
2021/04/10 10:56:05;;;;;;;29.02;17.70;;;8.80;85.20;;;;;;5092660;28;20263;-80
2021/04/10 10:58:41;;;;;;;36.45;17.70;;;8.90;86.00;;;;;;5089302;28;20204;-79
2021/04/10 11:01:19;;;;;;;40.60;17.88;;;9.00;86.30;;;;;;5071700;28;20164;-82
2021/04/10 11:03:51;;;;;;;35.13;17.88;;;8.90;86.10;;;;;;5073097;28;20613;-80
2021/04/10 11:06:22;;;;;;;29.20;16.77;;;8.90;86.40;;;;;;5088150;28;20645;-80
2021/04/10 11:08:49;;;;;;;31.50;16.70;;;9.00;86.20;;;;;;5092262;28;20205;-82
2021/04/10 11:11:16;;;;;;;30.23;16.95;;;9.00;86.20;;;;;;5093943;28;20184;-82
2021/04/10 11:13:44;;;;;;;34.20;17.63;;;9.00;86.40;;;;;;5113629;28;20175;-83
2021/04/10 11:16:11;;;;;;;31.73;17.70;;;9.10;86.40;;;;;;5113347;28;20236;-79
2021/04/10 11:18:42;;;;;;;39.72;18.35;;;9.00;86.30;;;;;;5112623;28;20214;-79
2021/04/10 11:21:15;;;;;;;34.38;19.17;;;9.10;86.50;;;;;;5112011;28;20167;-80
2021/04/10 11:24:07;;;;;;;34.50;19.05;;;9.00;86.20;;;;;;5096203;28;20203;-79
2021/04/10 11:26:38;;;;;;;29.35;17.00;;;9.10;86.30;;;;;;5092451;28;20245;-79
2021/04/10 11:32:23;;;;;;;34.70;19.73;;;9.00;86.90;;;;;;5093522;28;20291;-79
2021/04/10 11:34:51;;;;;;;33.75;18.65;;;8.90;87.30;;;;;;5093244;28;20179;-79
2021/04/10 11:37:38;;;;;;;38.20;19.10;;;9.00;87.50;;;;;;5092129;28;20300;-80
2021/04/10 11:40:21;;;;;;;36.90;17.65;;;9.00;87.80;;;;;;5093550;28;20168;-80
2021/04/10 11:42:55;;;;;;;32.60;17.90;;;8.80;88.00;;;;;;5100897;28;20188;-80
2021/04/10 11:45:27;;;;;;;32.92;18.98;;;8.80;88.20;;;;;;5097628;28;20172;-80
2021/04/10 11:48:15;;;;;;;34.50;17.65;;;8.90;88.50;;;;;;5093718;28;20168;-81
2021/04/10 11:50:54;;;;;;;38.13;18.95;;;8.90;88.80;;;;;;5096152;28;20203;-81
2021/04/10 11:53:23;;;;;;;34.58;18.15;;;8.90;89.10;;;;;;5097931;28;20191;-81
2021/04/10 11:55:50;;;;;;;31.10;18.50;;;8.80;89.30;;;;;;5095935;28;20183;-80
2021/04/10 11:58:30;;;;;;;29.77;19.10;;;8.60;89.40;;;;;;5087627;28;20191;-80
2021/04/10 12:01:10;;;;;;;34.55;17.83;;;8.50;89.90;;;;;;5118918;28;20202;-81
2021/04/10 12:03:56;;;;;;;30.38;17.35;;;8.50;90.40;;;;;;5122668;28;20195;-80
2021/04/10 12:06:40;;;;;;;36.30;18.30;;;8.50;90.60;;;;;;5129137;28;20167;-80
2021/04/10 12:09:16;;;;;;;27.88;17.02;;;8.60;90.70;;;;;;5123626;28;20186;-80
2021/04/10 12:11:43;;;;;;;24.50;16.05;;;8.70;90.70;;;;;;5110148;28;20191;-80
2021/04/10 12:14:14;;;;;;;28.65;17.15;;;8.70;90.50;;;;;;5096012;28;20194;-80
2021/04/10 12:16:43;;;;;;;43.97;16.92;;;8.70;90.70;;;;;;5096849;28;20680;-80
2021/04/10 12:19:10;;;;;;;29.00;17.35;;;8.80;90.50;;;;;;5095907;28;20221;-80
2021/04/10 12:21:35;;;;;;;26.77;18.17;;;8.90;90.40;;;;;;5095177;28;20207;-81
2021/04/10 12:24:02;;;;;;;26.97;16.77;;;9.00;90.40;;;;;;5095160;28;20175;-81
2021/04/10 12:26:28;;;;;;;30.15;17.98;;;9.10;90.20;;;;;;5095084;28;20478;-81
2021/04/10 12:28:54;;;;;;;22.90;15.75;;;9.20;90.00;;;;;;5095271;28;20215;-81
2021/04/10 12:31:23;;;;;;;26.67;16.63;;;9.10;89.40;;;;;;5094730;28;20264;-81
2021/04/10 12:33:49;;;;;;;27.63;16.73;;;9.20;89.40;;;;;;5095315;28;20440;-81
2021/04/10 12:36:15;;;;;;;34.83;16.20;;;9.20;89.40;;;;;;5095303;28;20188;-81
2021/04/10 12:38:41;;;;;;;30.33;16.83;;;9.10;89.10;;;;;;5095014;28;20462;-81
2021/04/10 12:41:07;;;;;;;30.77;18.77;;;9.10;89.20;;;;;;5105885;28;20421;-81
2021/04/10 12:43:34;;;;;;;28.95;17.92;;;9.20;89.10;;;;;;5097052;28;20558;-81
2021/04/10 12:46:00;;;;;;;31.08;17.00;;;9.00;88.90;;;;;;5096420;28;20240;-81
2021/04/10 12:48:26;;;;;;;28.48;16.55;;;9.00;89.10;;;;;;5096368;28;20172;-81
2021/04/10 12:50:53;;;;;;;24.60;17.00;;;9.10;89.60;;;;;;5094432;28;20203;-80
2021/04/10 12:53:19;;;;;;;32.13;19.00;;;9.30;89.70;;;;;;5094577;28;20287;-80
2021/04/10 12:55:44;;;;;;;32.37;17.77;;;9.40;89.60;;;;;;5094495;28;20207;-80
2021/04/10 12:58:10;;;;;;;32.40;18.07;;;9.30;89.50;;;;;;5097987;28;20214;-79